createdAt,value
2018-11-27T00:00:01.618Z,2.00
2018-11-27T00:01:06.092Z,2.10
2018-11-27T00:02:10.380Z,2.10
2018-11-27T00:03:14.604Z,2.10
2018-11-27T00:04:18.766Z,2.00
2018-11-27T00:05:22.979Z,2.00
2018-11-27T00:06:27.214Z,2.00
2018-11-27T00:07:31.456Z,2.10
2018-11-27T00:08:35.875Z,2.00
2018-11-27T00:09:40.077Z,2.10
2018-11-27T00:10:44.282Z,2.00
2018-11-27T00:11:48.505Z,2.10
2018-11-27T00:12:52.589Z,2.10
2018-11-27T00:13:56.882Z,2.10
2018-11-27T00:15:01.200Z,2.10
2018-11-27T00:16:05.430Z,2.10
2018-11-27T00:17:09.636Z,2.00
2018-11-27T00:18:14.789Z,2.00
2018-11-27T00:19:25.533Z,2.00
2018-11-27T00:20:29.667Z,2.10
2018-11-27T00:21:33.890Z,2.10
2018-11-27T00:22:38.285Z,2.10
2018-11-27T00:23:42.433Z,2.10
2018-11-27T00:24:46.664Z,2.10
2018-11-27T00:25:50.839Z,2.10
2018-11-27T00:26:54.865Z,2.10
2018-11-27T00:27:58.956Z,2.10
2018-11-27T00:29:03.188Z,2.10
2018-11-27T00:30:16.243Z,2.10
2018-11-27T00:31:20.636Z,2.10
2018-11-27T00:32:24.887Z,2.10
2018-11-27T00:33:28.931Z,2.10
2018-11-27T00:34:33.110Z,2.10
2018-11-27T00:35:37.384Z,2.10
2018-11-27T00:36:41.542Z,2.10
2018-11-27T00:37:45.584Z,2.10
2018-11-27T00:38:49.672Z,2.10
2018-11-27T00:39:53.882Z,2.10
2018-11-27T00:40:58.217Z,2.10
2018-11-27T00:42:02.469Z,2.10
2018-11-27T00:43:06.732Z,2.10
2018-11-27T00:44:11.217Z,2.10
2018-11-27T00:45:16.425Z,2.10
2018-11-27T00:46:20.580Z,2.10
2018-11-27T00:47:24.824Z,2.10
2018-11-27T00:48:28.922Z,2.10
2018-11-27T00:49:33.137Z,2.10
2018-11-27T00:50:37.914Z,2.10
2018-11-27T00:51:43.108Z,2.10
2018-11-27T00:52:47.205Z,2.10
2018-11-27T00:53:51.346Z,2.10
2018-11-27T00:54:58.687Z,2.10
2018-11-27T00:55:59.866Z,2.10
2018-11-27T00:57:04.076Z,2.10
2018-11-27T00:58:08.386Z,2.10
2018-11-27T00:59:12.526Z,2.10
2018-11-27T01:00:19.564Z,2.10
2018-11-27T01:01:23.671Z,2.10
2018-11-27T01:02:27.871Z,2.10
2018-11-27T01:03:32.089Z,2.10
2018-11-27T01:04:36.126Z,2.10
2018-11-27T01:05:40.461Z,2.10
2018-11-27T01:06:44.842Z,2.10
2018-11-27T01:07:49.185Z,2.10
2018-11-27T01:08:53.700Z,2.10
2018-11-27T01:09:57.789Z,2.10
2018-11-27T01:11:02.106Z,2.10
2018-11-27T01:12:06.262Z,2.10
2018-11-27T01:13:10.485Z,2.00
2018-11-27T01:14:14.645Z,2.10
2018-11-27T01:15:18.865Z,2.10
2018-11-27T01:16:23.005Z,2.10
2018-11-27T01:17:27.104Z,2.10
2018-11-27T01:18:31.248Z,2.10
2018-11-27T01:19:35.387Z,2.10
2018-11-27T01:20:40.460Z,2.10
2018-11-27T01:21:44.701Z,2.10
2018-11-27T01:22:48.974Z,2.10
2018-11-27T01:23:53.081Z,2.20
2018-11-27T01:25:03.797Z,2.20
2018-11-27T01:26:07.941Z,2.20
2018-11-27T01:27:12.113Z,2.10
2018-11-27T01:28:16.195Z,2.20
2018-11-27T01:29:20.345Z,2.20
2018-11-27T01:30:24.725Z,2.20
2018-11-27T01:31:28.899Z,2.20
2018-11-27T01:32:32.957Z,2.10
2018-11-27T01:33:37.059Z,2.20
2018-11-27T01:34:42.132Z,2.10
2018-11-27T01:35:46.170Z,2.10
2018-11-27T01:36:50.250Z,2.10
2018-11-27T01:37:55.241Z,2.20
2018-11-27T01:38:59.374Z,2.20
2018-11-27T01:40:03.576Z,2.20
2018-11-27T01:41:07.981Z,2.10
2018-11-27T01:42:12.049Z,2.20
2018-11-27T01:43:16.292Z,2.20
2018-11-27T01:44:20.286Z,2.20
2018-11-27T01:45:25.013Z,2.20
2018-11-27T01:46:29.216Z,2.20
2018-11-27T01:47:33.366Z,2.20
2018-11-27T01:48:37.870Z,2.20
2018-11-27T01:49:41.964Z,2.10
2018-11-27T01:50:46.168Z,2.20
2018-11-27T01:51:50.281Z,2.20
2018-11-27T01:52:54.388Z,2.20
2018-11-27T01:53:58.532Z,2.20
2018-11-27T01:55:02.736Z,2.20
2018-11-27T01:56:07.235Z,2.20
2018-11-27T01:57:11.409Z,2.20
2018-11-27T01:58:15.572Z,2.20
2018-11-27T01:59:19.827Z,2.20
2018-11-27T02:00:29.437Z,2.20
2018-11-27T02:01:33.570Z,2.20
2018-11-27T02:02:37.908Z,2.20
2018-11-27T02:03:41.921Z,2.20
2018-11-27T02:04:47.015Z,2.20
2018-11-27T02:05:51.173Z,2.20
2018-11-27T02:06:55.344Z,2.20
2018-11-27T02:08:00.595Z,2.20
2018-11-27T02:09:07.757Z,2.20
2018-11-27T02:10:12.930Z,2.30
2018-11-27T02:11:17.007Z,2.20
2018-11-27T02:12:21.232Z,2.20
2018-11-27T02:13:25.233Z,2.30
2018-11-27T02:14:29.269Z,2.30
2018-11-27T02:15:33.542Z,2.20
2018-11-27T02:16:37.696Z,2.30
2018-11-27T02:17:41.828Z,2.30
2018-11-27T02:18:45.968Z,2.30
2018-11-27T02:19:50.021Z,2.20
2018-11-27T02:20:54.305Z,2.20
2018-11-27T02:21:58.501Z,2.20
2018-11-27T02:23:02.736Z,2.20
2018-11-27T02:24:07.396Z,2.30
2018-11-27T02:25:25.100Z,2.30
2018-11-27T02:26:29.284Z,2.20
2018-11-27T02:27:33.433Z,2.20
2018-11-27T02:28:37.548Z,2.20
2018-11-27T02:29:41.613Z,2.30
2018-11-27T02:30:47.457Z,2.20
2018-11-27T02:31:51.556Z,2.30
2018-11-27T02:32:55.777Z,2.20
2018-11-27T02:33:59.932Z,2.30
2018-11-27T02:35:04.050Z,2.20
2018-11-27T02:36:08.102Z,2.20
2018-11-27T02:37:12.261Z,2.20
2018-11-27T02:38:16.313Z,2.20
2018-11-27T02:39:21.283Z,2.20
2018-11-27T02:40:25.540Z,2.30
2018-11-27T02:41:29.684Z,2.30
2018-11-27T02:42:33.761Z,2.20
2018-11-27T02:43:37.810Z,2.30
2018-11-27T02:44:42.045Z,2.30
2018-11-27T02:45:46.206Z,2.30
2018-11-27T02:46:50.332Z,2.20
2018-11-27T02:47:55.314Z,2.30
2018-11-27T02:48:59.278Z,2.20
2018-11-27T02:50:03.778Z,2.30
2018-11-27T02:51:07.901Z,2.20
2018-11-27T02:52:11.974Z,2.20
2018-11-27T02:53:16.887Z,2.20
2018-11-27T02:54:21.002Z,2.20
2018-11-27T02:55:26.630Z,2.20
2018-11-27T02:56:30.729Z,2.20
2018-11-27T02:57:34.985Z,2.20
2018-11-27T02:58:39.207Z,2.20
2018-11-27T02:59:43.372Z,2.20
2018-11-27T03:00:47.479Z,2.20
2018-11-27T03:01:51.557Z,2.20
2018-11-27T03:02:55.885Z,2.10
2018-11-27T03:04:00.218Z,2.20
2018-11-27T03:05:04.666Z,2.20
2018-11-27T03:06:08.776Z,2.10
2018-11-27T03:07:12.884Z,2.10
2018-11-27T03:08:16.964Z,2.20
2018-11-27T03:09:21.117Z,2.10
2018-11-27T03:10:25.200Z,2.10
2018-11-27T03:11:29.229Z,2.10
2018-11-27T03:12:33.239Z,2.10
2018-11-27T03:13:37.411Z,2.10
2018-11-27T03:14:41.666Z,2.10
2018-11-27T03:15:45.993Z,2.10
2018-11-27T03:16:50.065Z,2.10
2018-11-27T03:17:55.469Z,2.10
2018-11-27T03:18:59.685Z,2.10
2018-11-27T03:20:03.909Z,2.10
2018-11-27T03:21:08.008Z,2.10
2018-11-27T03:22:12.191Z,2.10
2018-11-27T03:23:16.368Z,2.10
2018-11-27T03:24:20.485Z,2.10
2018-11-27T03:25:24.853Z,2.10
2018-11-27T03:26:28.909Z,2.10
2018-11-27T03:27:32.981Z,2.10
2018-11-27T03:28:36.998Z,2.10
2018-11-27T03:29:41.089Z,2.10
2018-11-27T03:30:45.199Z,2.10
2018-11-27T03:31:49.298Z,2.10
2018-11-27T03:32:53.349Z,2.10
2018-11-27T03:33:58.535Z,2.10
2018-11-27T03:35:02.550Z,2.20
2018-11-27T03:36:07.021Z,2.20
2018-11-27T03:37:11.093Z,2.10
2018-11-27T03:38:15.183Z,2.20
2018-11-27T03:39:19.412Z,2.10
2018-11-27T03:40:25.656Z,2.10
2018-11-27T03:41:30.868Z,2.10
2018-11-27T03:42:35.614Z,2.20
2018-11-27T03:43:39.681Z,2.10
2018-11-27T03:44:43.695Z,2.10
2018-11-27T03:45:47.788Z,2.10
2018-11-27T03:46:52.013Z,2.10
2018-11-27T03:47:56.158Z,2.10
2018-11-27T03:49:00.201Z,2.10
2018-11-27T03:50:07.030Z,2.10
2018-11-27T03:51:11.232Z,2.10
2018-11-27T03:52:15.451Z,2.10
2018-11-27T03:53:19.526Z,2.10
2018-11-27T03:54:23.629Z,2.10
2018-11-27T03:55:27.722Z,2.10
2018-11-27T03:56:31.824Z,2.00
2018-11-27T03:57:35.972Z,2.00
2018-11-27T03:58:40.645Z,2.00
2018-11-27T03:59:44.741Z,2.00
2018-11-27T04:00:48.898Z,2.00
2018-11-27T04:01:53.073Z,2.00
2018-11-27T04:03:02.924Z,2.00
2018-11-27T04:04:10.028Z,2.10
2018-11-27T04:05:12.069Z,2.10
2018-11-27T04:06:16.224Z,2.00
2018-11-27T04:07:20.575Z,2.00
2018-11-27T04:08:24.784Z,2.00
2018-11-27T04:09:28.868Z,2.00
2018-11-27T04:10:33.011Z,2.00
2018-11-27T04:11:37.163Z,2.00
2018-11-27T04:12:41.342Z,2.00
2018-11-27T04:13:45.521Z,2.00
2018-11-27T04:14:49.564Z,2.00
2018-11-27T04:15:53.722Z,2.00
2018-11-27T04:16:57.938Z,2.00
2018-11-27T04:18:02.091Z,2.00
2018-11-27T04:19:06.533Z,1.90
2018-11-27T04:20:11.688Z,1.90
2018-11-27T04:21:15.981Z,2.00
2018-11-27T04:22:20.114Z,2.00
2018-11-27T04:23:24.218Z,2.00
2018-11-27T04:24:28.318Z,2.00
2018-11-27T04:25:32.308Z,1.90
2018-11-27T04:26:36.489Z,2.00
2018-11-27T04:27:40.771Z,2.00
2018-11-27T04:28:44.870Z,1.90
2018-11-27T04:29:49.000Z,1.90
2018-11-27T04:30:54.032Z,1.90
2018-11-27T04:31:58.117Z,1.90
2018-11-27T04:33:02.149Z,1.90
2018-11-27T04:34:06.509Z,1.90
2018-11-27T04:35:12.114Z,1.90
2018-11-27T04:36:16.225Z,1.90
2018-11-27T04:37:20.224Z,1.90
2018-11-27T04:38:24.598Z,1.90
2018-11-27T04:39:28.726Z,1.90
2018-11-27T04:40:32.932Z,2.00
2018-11-27T04:41:37.082Z,2.00
2018-11-27T04:42:41.245Z,1.90
2018-11-27T04:43:46.114Z,2.00
2018-11-27T04:44:50.288Z,2.00
2018-11-27T04:45:57.368Z,2.00
2018-11-27T04:47:01.504Z,2.00
2018-11-27T04:48:06.537Z,2.00
2018-11-27T04:49:10.617Z,2.00
2018-11-27T04:50:15.751Z,2.00
2018-11-27T04:51:19.937Z,2.00
2018-11-27T04:52:24.060Z,2.10
2018-11-27T04:53:31.072Z,2.10
2018-11-27T04:54:35.219Z,2.00
2018-11-27T04:55:39.521Z,2.10
2018-11-27T04:56:43.735Z,2.10
2018-11-27T04:57:48.846Z,2.10
2018-11-27T04:58:53.049Z,2.10
2018-11-27T04:59:57.185Z,2.10
2018-11-27T05:01:01.216Z,2.10
2018-11-27T05:02:05.577Z,2.10
2018-11-27T05:03:10.429Z,2.10
2018-11-27T05:04:14.522Z,2.10
2018-11-27T05:05:25.225Z,2.10
2018-11-27T05:06:29.373Z,2.10
2018-11-27T05:07:33.494Z,2.10
2018-11-27T05:08:38.405Z,2.10
2018-11-27T05:09:42.566Z,2.10
2018-11-27T05:10:46.586Z,2.10
2018-11-27T05:11:50.842Z,2.10
2018-11-27T05:12:55.110Z,2.10
2018-11-27T05:13:59.247Z,2.10
2018-11-27T05:15:03.479Z,2.10
2018-11-27T05:16:10.362Z,2.10
2018-11-27T05:17:14.534Z,2.10
2018-11-27T05:18:19.965Z,2.10
2018-11-27T05:19:24.121Z,2.00
2018-11-27T05:20:28.237Z,2.00
2018-11-27T05:21:32.420Z,2.10
2018-11-27T05:22:36.757Z,2.10
2018-11-27T05:23:41.018Z,2.10
2018-11-27T05:24:45.273Z,2.10
2018-11-27T05:25:49.596Z,2.10
2018-11-27T05:26:53.673Z,2.10
2018-11-27T05:27:59.127Z,2.10
2018-11-27T05:29:03.392Z,2.10
2018-11-27T05:30:11.833Z,2.10
2018-11-27T05:31:16.099Z,2.10
2018-11-27T05:32:20.897Z,2.10
2018-11-27T05:33:25.151Z,2.10
2018-11-27T05:34:29.370Z,2.10
2018-11-27T05:35:33.481Z,2.10
2018-11-27T05:36:37.665Z,2.10
2018-11-27T05:37:42.852Z,2.20
2018-11-27T05:38:47.011Z,2.20
2018-11-27T05:39:51.301Z,2.10
2018-11-27T05:40:55.551Z,2.10
2018-11-27T05:41:59.685Z,2.10
2018-11-27T05:43:08.623Z,2.20
2018-11-27T05:44:12.900Z,2.10
2018-11-27T05:45:18.088Z,2.20
2018-11-27T05:46:22.221Z,2.20
2018-11-27T05:47:26.654Z,2.20
2018-11-27T05:48:31.041Z,2.10
2018-11-27T05:49:38.973Z,2.10
2018-11-27T05:50:43.482Z,2.10
2018-11-27T05:51:47.666Z,2.10
2018-11-27T05:52:51.898Z,2.10
2018-11-27T05:54:02.660Z,2.10
2018-11-27T05:55:08.445Z,2.10
2018-11-27T05:56:12.654Z,2.10
2018-11-27T05:57:16.760Z,2.10
2018-11-27T05:58:21.048Z,2.10
2018-11-27T05:59:25.236Z,2.00
2018-11-27T06:00:30.461Z,2.00
2018-11-27T06:01:34.565Z,2.00
2018-11-27T06:02:39.406Z,2.00
2018-11-27T06:03:43.520Z,2.00
2018-11-27T06:04:47.923Z,2.00
2018-11-27T06:05:52.056Z,2.00
2018-11-27T06:06:56.345Z,1.90
2018-11-27T06:08:00.669Z,1.90
2018-11-27T06:09:07.813Z,2.00
2018-11-27T06:10:13.312Z,1.90
2018-11-27T06:11:17.570Z,2.00
2018-11-27T06:12:21.730Z,1.90
2018-11-27T06:13:27.041Z,2.00
2018-11-27T06:14:31.515Z,2.00
2018-11-27T06:15:35.826Z,2.00
2018-11-27T06:16:40.142Z,2.00
2018-11-27T06:17:44.564Z,2.00
2018-11-27T06:18:48.854Z,2.00
2018-11-27T06:19:53.162Z,2.00
2018-11-27T06:20:57.965Z,2.00
2018-11-27T06:22:02.170Z,2.10
2018-11-27T06:23:07.161Z,2.10
2018-11-27T06:24:11.744Z,2.10
2018-11-27T06:25:17.355Z,2.10
2018-11-27T06:26:21.585Z,2.10
2018-11-27T06:27:26.914Z,2.10
2018-11-27T06:28:31.217Z,2.10
2018-11-27T06:29:35.547Z,2.10
2018-11-27T06:30:39.701Z,2.00
2018-11-27T06:31:44.001Z,2.10
2018-11-27T06:32:48.293Z,2.00
2018-11-27T06:33:52.898Z,2.10
2018-11-27T06:34:57.461Z,2.10
2018-11-27T06:36:01.704Z,2.10
2018-11-27T06:37:06.641Z,2.10
2018-11-27T06:38:11.490Z,2.10
2018-11-27T06:39:15.809Z,2.10
2018-11-27T06:40:23.116Z,2.10
2018-11-27T06:41:27.353Z,2.10
2018-11-27T06:42:31.504Z,2.00
2018-11-27T06:43:35.778Z,2.00
2018-11-27T06:44:40.260Z,2.00
2018-11-27T06:45:44.880Z,2.10
2018-11-27T06:46:49.221Z,2.00
2018-11-27T06:47:54.127Z,2.00
2018-11-27T06:48:59.423Z,2.00
2018-11-27T06:50:03.841Z,2.00
2018-11-27T06:51:08.093Z,2.00
2018-11-27T06:52:12.328Z,2.10
2018-11-27T06:53:16.572Z,2.00
2018-11-27T06:54:20.818Z,2.00
2018-11-27T06:55:25.583Z,2.00
2018-11-27T06:56:29.758Z,2.00
2018-11-27T06:57:34.150Z,2.00
2018-11-27T06:58:39.139Z,1.90
2018-11-27T06:59:43.522Z,1.90
2018-11-27T07:00:47.845Z,1.90
2018-11-27T07:01:52.160Z,1.90
2018-11-27T07:02:57.210Z,1.90
2018-11-27T07:04:01.321Z,1.90
2018-11-27T07:05:05.617Z,1.90
2018-11-27T07:06:10.014Z,1.90
2018-11-27T07:07:14.055Z,1.90
2018-11-27T07:08:18.733Z,2.00
2018-11-27T07:09:22.950Z,2.00
2018-11-27T07:10:34.277Z,2.00
2018-11-27T07:11:39.529Z,2.00
2018-11-27T07:12:50.879Z,2.00
2018-11-27T07:13:54.973Z,2.00
2018-11-27T07:14:59.228Z,2.00
2018-11-27T07:16:03.288Z,2.00
2018-11-27T07:17:07.623Z,2.00
2018-11-27T07:18:11.786Z,2.00
2018-11-27T07:19:15.862Z,2.00
2018-11-27T07:20:19.985Z,2.00
2018-11-27T07:21:24.974Z,2.00
2018-11-27T07:22:29.247Z,2.10
2018-11-27T07:23:33.274Z,2.10
2018-11-27T07:24:37.348Z,2.00
2018-11-27T07:25:41.705Z,2.10
2018-11-27T07:26:45.885Z,2.10
2018-11-27T07:27:50.982Z,2.10
2018-11-27T07:28:55.057Z,2.20
2018-11-27T07:29:59.304Z,2.20
2018-11-27T07:31:03.529Z,2.20
2018-11-27T07:32:09.585Z,2.20
2018-11-27T07:33:12.101Z,2.20
2018-11-27T07:34:16.169Z,2.20
2018-11-27T07:35:20.611Z,2.20
2018-11-27T07:36:24.881Z,2.20
2018-11-27T07:37:29.182Z,2.20
2018-11-27T07:38:33.233Z,2.30
2018-11-27T07:39:37.334Z,2.30
2018-11-27T07:40:41.549Z,2.30
2018-11-27T07:41:45.716Z,2.30
2018-11-27T07:42:51.030Z,2.30
2018-11-27T07:43:55.221Z,2.30
2018-11-27T07:44:59.349Z,2.30
2018-11-27T07:46:03.603Z,2.30
2018-11-27T07:47:08.778Z,2.30
2018-11-27T07:48:13.062Z,2.40
2018-11-27T07:49:17.189Z,2.30
2018-11-27T07:50:21.377Z,2.30
2018-11-27T07:51:25.521Z,2.40
2018-11-27T07:52:29.885Z,2.40
2018-11-27T07:53:33.952Z,2.40
2018-11-27T07:54:38.273Z,2.40
2018-11-27T07:55:42.595Z,2.50
2018-11-27T07:56:46.650Z,2.50
2018-11-27T07:57:51.453Z,2.50
2018-11-27T07:58:55.630Z,2.60
2018-11-27T07:59:59.906Z,2.60
2018-11-27T08:01:04.105Z,2.60
2018-11-27T08:02:08.373Z,2.60
2018-11-27T08:03:12.606Z,2.60
2018-11-27T08:04:16.794Z,2.60
2018-11-27T08:05:23.285Z,2.60
2018-11-27T08:06:27.522Z,2.60
2018-11-27T08:07:31.733Z,2.60
2018-11-27T08:08:35.983Z,2.60
2018-11-27T08:09:40.067Z,2.60
2018-11-27T08:10:45.125Z,2.60
2018-11-27T08:11:49.279Z,2.60
2018-11-27T08:12:53.642Z,2.60
2018-11-27T08:13:57.986Z,2.60
2018-11-27T08:15:02.072Z,2.70
2018-11-27T08:16:06.284Z,2.60
2018-11-27T08:17:10.486Z,2.60
2018-11-27T08:18:14.730Z,2.70
2018-11-27T08:19:18.824Z,2.70
2018-11-27T08:20:37.439Z,2.70
2018-11-27T08:21:41.595Z,2.70
2018-11-27T08:22:45.828Z,2.70
2018-11-27T08:23:50.230Z,2.70
2018-11-27T08:24:54.427Z,2.80
2018-11-27T08:26:00.426Z,2.80
2018-11-27T08:27:04.641Z,2.80
2018-11-27T08:28:09.004Z,2.80
2018-11-27T08:29:13.194Z,2.80
2018-11-27T08:30:20.169Z,2.80
2018-11-27T08:31:24.328Z,2.80
2018-11-27T08:32:28.528Z,2.80
2018-11-27T08:33:32.802Z,2.80
2018-11-27T08:34:36.982Z,2.90
2018-11-27T08:35:42.147Z,2.90
2018-11-27T08:36:46.315Z,2.90
2018-11-27T08:37:52.230Z,3.00
2018-11-27T08:38:56.438Z,3.00
2018-11-27T08:40:01.287Z,3.00
2018-11-27T08:41:05.632Z,3.00
2018-11-27T08:42:09.894Z,3.00
2018-11-27T08:43:14.058Z,3.00
2018-11-27T08:44:18.837Z,3.00
2018-11-27T08:45:24.773Z,3.00
2018-11-27T08:46:28.901Z,3.00
2018-11-27T08:47:32.889Z,3.00
2018-11-27T08:48:37.074Z,3.00
2018-11-27T08:49:41.286Z,2.90
2018-11-27T08:50:45.310Z,2.90
2018-11-27T08:51:50.082Z,2.80
2018-11-27T08:52:55.363Z,2.80
2018-11-27T08:53:59.659Z,2.70
2018-11-27T08:55:03.804Z,2.80
2018-11-27T08:56:08.812Z,2.70
2018-11-27T08:57:13.210Z,2.70
2018-11-27T08:58:22.273Z,2.70
2018-11-27T08:59:26.625Z,2.70
2018-11-27T09:00:30.776Z,2.60
2018-11-27T09:01:35.018Z,2.70
2018-11-27T09:02:39.140Z,2.70
2018-11-27T09:03:46.457Z,2.70
2018-11-27T09:04:47.607Z,2.70
2018-11-27T09:05:51.931Z,2.70
2018-11-27T09:06:56.225Z,2.70
2018-11-27T09:08:00.341Z,2.70
2018-11-27T09:09:07.038Z,2.70
2018-11-27T09:10:15.664Z,2.70
2018-11-27T09:11:19.987Z,2.80
2018-11-27T09:12:24.308Z,2.80
2018-11-27T09:13:31.510Z,2.80
2018-11-27T09:14:39.006Z,2.90
2018-11-27T09:15:47.127Z,2.90
2018-11-27T09:16:54.248Z,2.90
2018-11-27T09:18:05.328Z,3.00
2018-11-27T09:19:11.793Z,3.00
2018-11-27T09:20:19.049Z,3.00
2018-11-27T09:21:25.359Z,3.10
2018-11-27T09:22:30.822Z,3.10
2018-11-27T09:23:37.661Z,3.20
2018-11-27T09:24:44.809Z,3.20
2018-11-27T09:25:52.953Z,3.20
2018-11-27T09:27:00.210Z,3.30
2018-11-27T09:28:06.591Z,3.30
2018-11-27T09:29:13.858Z,3.30
2018-11-27T09:30:27.981Z,3.40
2018-11-27T09:31:37.831Z,3.40
2018-11-27T09:32:46.103Z,3.50
2018-11-27T09:33:53.343Z,3.50
2018-11-27T09:34:59.331Z,3.60
2018-11-27T09:36:07.489Z,3.60
2018-11-27T09:37:13.459Z,3.60
2018-11-27T09:38:21.493Z,3.60
2018-11-27T09:39:25.806Z,3.60
2018-11-27T09:40:29.972Z,3.70
2018-11-27T09:41:34.225Z,3.60
2018-11-27T09:42:38.421Z,3.60
2018-11-27T09:43:42.630Z,3.60
2018-11-27T09:44:46.728Z,3.60
2018-11-27T09:45:51.265Z,3.60
2018-11-27T09:46:55.531Z,3.60
2018-11-27T09:48:00.227Z,3.60
2018-11-27T09:49:04.427Z,3.70
2018-11-27T09:50:12.156Z,3.60
2018-11-27T09:51:16.449Z,3.60
2018-11-27T09:52:21.415Z,3.70
2018-11-27T09:53:25.636Z,3.70
2018-11-27T09:54:30.041Z,3.70
2018-11-27T09:55:34.225Z,3.70
2018-11-27T09:56:38.963Z,3.70
2018-11-27T09:57:43.305Z,3.70
2018-11-27T09:58:47.517Z,3.80
2018-11-27T09:59:51.721Z,3.80
2018-11-27T10:00:55.981Z,3.80
2018-11-27T10:02:00.069Z,3.90
2018-11-27T10:03:06.066Z,3.90
2018-11-27T10:04:10.354Z,3.90
2018-11-27T10:05:14.779Z,3.90
2018-11-27T10:06:21.868Z,3.90
2018-11-27T10:07:26.042Z,3.90
2018-11-27T10:08:30.387Z,3.90
2018-11-27T10:09:34.424Z,3.90
2018-11-27T10:10:42.196Z,3.80
2018-11-27T10:11:46.445Z,3.90
2018-11-27T10:12:50.752Z,3.90
2018-11-27T10:13:54.953Z,3.90
2018-11-27T10:14:59.161Z,3.90
2018-11-27T10:16:03.471Z,3.90
2018-11-27T10:17:07.873Z,3.90
2018-11-27T10:18:12.202Z,3.90
2018-11-27T10:19:16.687Z,3.90
2018-11-27T10:20:22.289Z,3.90
2018-11-27T10:21:26.869Z,3.90
2018-11-27T10:22:31.229Z,3.90
2018-11-27T10:23:35.742Z,3.90
2018-11-27T10:24:40.035Z,3.90
2018-11-27T10:25:44.324Z,3.90
2018-11-27T10:26:48.804Z,3.90
2018-11-27T10:27:53.103Z,4.00
2018-11-27T10:28:57.438Z,4.00
2018-11-27T10:30:01.675Z,4.00
2018-11-27T10:31:05.864Z,4.00
2018-11-27T10:32:09.992Z,4.10
2018-11-27T10:33:14.346Z,4.20
2018-11-27T10:34:18.687Z,4.20
2018-11-27T10:35:27.896Z,4.30
2018-11-27T10:36:32.249Z,4.40
2018-11-27T10:37:36.491Z,4.60
2018-11-27T10:38:40.645Z,4.70
2018-11-27T10:39:44.765Z,4.80
2018-11-27T10:40:50.026Z,4.90
2018-11-27T10:41:54.161Z,4.90
2018-11-27T10:42:58.406Z,4.90
2018-11-27T10:44:02.570Z,4.90
2018-11-27T10:45:10.648Z,4.80
2018-11-27T10:46:14.925Z,4.80
2018-11-27T10:47:19.214Z,4.70
2018-11-27T10:48:23.653Z,4.70
2018-11-27T10:49:27.805Z,4.70
2018-11-27T10:50:32.037Z,4.70
2018-11-27T10:51:36.253Z,4.70
2018-11-27T10:52:41.767Z,4.70
2018-11-27T10:53:46.004Z,4.70
2018-11-27T10:54:50.829Z,4.70
2018-11-27T10:55:54.577Z,4.70
2018-11-27T10:56:59.041Z,4.70
2018-11-27T10:58:03.093Z,4.70
2018-11-27T10:59:07.497Z,4.60
2018-11-27T11:00:19.378Z,4.60
2018-11-27T11:01:28.787Z,4.60
2018-11-27T11:02:36.258Z,4.60
2018-11-27T11:03:40.423Z,4.50
2018-11-27T11:04:44.756Z,4.50
2018-11-27T11:05:49.203Z,4.50
2018-11-27T11:06:53.570Z,4.50
2018-11-27T11:07:58.109Z,4.50
2018-11-27T11:09:02.865Z,4.50
2018-11-27T11:10:07.533Z,4.50
2018-11-27T11:11:11.759Z,4.50
2018-11-27T11:12:16.137Z,4.50
2018-11-27T11:13:20.471Z,4.60
2018-11-27T11:14:24.675Z,4.60
2018-11-27T11:15:28.979Z,4.60
2018-11-27T11:16:33.426Z,4.50
2018-11-27T11:17:37.835Z,4.50
2018-11-27T11:18:42.181Z,4.50
2018-11-27T11:19:46.489Z,4.50
2018-11-27T11:20:50.690Z,4.50
2018-11-27T11:21:54.996Z,4.50
2018-11-27T11:22:59.446Z,4.50
2018-11-27T11:24:03.754Z,4.40
2018-11-27T11:25:12.406Z,4.50
2018-11-27T11:26:16.656Z,4.40
2018-11-27T11:27:21.862Z,4.40
2018-11-27T11:28:28.827Z,4.50
2018-11-27T11:29:33.054Z,4.40
2018-11-27T11:30:37.345Z,4.40
2018-11-27T11:31:41.442Z,4.40
2018-11-27T11:32:45.757Z,4.40
2018-11-27T11:33:50.303Z,4.40
2018-11-27T11:34:54.450Z,4.40
2018-11-27T11:35:58.745Z,4.50
2018-11-27T11:37:02.777Z,4.50
2018-11-27T11:38:07.488Z,4.50
2018-11-27T11:39:12.001Z,4.50
2018-11-27T11:40:20.534Z,4.50
2018-11-27T11:41:24.693Z,4.40
2018-11-27T11:42:29.053Z,4.40
2018-11-27T11:43:33.332Z,4.40
2018-11-27T11:44:38.077Z,4.30
2018-11-27T11:45:42.442Z,4.30
2018-11-27T11:46:46.810Z,4.30
2018-11-27T11:47:50.948Z,4.40
2018-11-27T11:48:54.994Z,4.50
2018-11-27T11:49:59.270Z,4.60
2018-11-27T11:51:03.702Z,4.70
2018-11-27T11:52:08.529Z,5.10
2018-11-27T11:53:16.725Z,5.30
2018-11-27T11:54:21.685Z,5.40
2018-11-27T11:55:25.733Z,5.40
2018-11-27T11:56:29.941Z,5.50
2018-11-27T11:57:34.118Z,5.40
2018-11-27T11:58:38.299Z,5.30
2018-11-27T11:59:42.399Z,5.20
2018-11-27T12:00:51.487Z,5.20
2018-11-27T12:01:55.784Z,5.10
2018-11-27T12:02:59.977Z,5.00
2018-11-27T12:04:04.090Z,4.90
2018-11-27T12:05:09.449Z,4.70
2018-11-27T12:06:13.763Z,4.60
2018-11-27T12:07:18.034Z,4.50
2018-11-27T12:08:22.060Z,4.50
2018-11-27T12:09:26.073Z,4.50
2018-11-27T12:10:30.205Z,4.40
2018-11-27T12:11:34.466Z,4.30
2018-11-27T12:12:38.926Z,4.30
2018-11-27T12:13:43.235Z,4.10
2018-11-27T12:14:47.301Z,4.10
2018-11-27T12:15:51.555Z,4.00
2018-11-27T12:16:55.866Z,4.10
2018-11-27T12:18:00.132Z,4.10
2018-11-27T12:19:04.336Z,4.10
2018-11-27T12:20:10.595Z,4.10
2018-11-27T12:21:14.852Z,4.10
2018-11-27T12:22:18.950Z,4.10
2018-11-27T12:23:23.354Z,4.10
2018-11-27T12:24:27.577Z,4.10
2018-11-27T12:25:31.801Z,4.10
2018-11-27T12:26:36.032Z,4.10
2018-11-27T12:27:40.412Z,4.10
2018-11-27T12:28:45.192Z,4.10
2018-11-27T12:29:49.430Z,4.10
2018-11-27T12:30:53.639Z,4.10
2018-11-27T12:31:57.917Z,4.00
2018-11-27T12:33:02.110Z,4.00
2018-11-27T12:34:06.406Z,3.90
2018-11-27T12:35:11.456Z,3.90
2018-11-27T12:36:15.725Z,3.90
2018-11-27T12:37:20.123Z,3.90
2018-11-27T12:38:24.352Z,3.90
2018-11-27T12:39:28.536Z,3.90
2018-11-27T12:40:32.846Z,3.90
2018-11-27T12:41:37.017Z,3.90
2018-11-27T12:42:41.109Z,3.90
2018-11-27T12:43:45.254Z,3.80
2018-11-27T12:44:49.476Z,3.80
2018-11-27T12:45:53.577Z,3.80
2018-11-27T12:46:57.714Z,3.80
2018-11-27T12:48:03.043Z,3.80
2018-11-27T12:49:07.201Z,3.80
2018-11-27T12:50:18.685Z,3.80
2018-11-27T12:51:23.006Z,3.80
2018-11-27T12:52:27.214Z,3.80
2018-11-27T12:53:31.406Z,3.80
2018-11-27T12:54:35.615Z,3.80
2018-11-27T12:55:43.180Z,3.90
2018-11-27T12:56:47.332Z,3.80
2018-11-27T12:57:51.557Z,3.80
2018-11-27T12:58:55.726Z,3.80
2018-11-27T13:00:01.106Z,3.80
2018-11-27T13:01:09.505Z,3.80
2018-11-27T13:02:10.494Z,3.70
2018-11-27T13:03:14.664Z,3.70
2018-11-27T13:04:19.060Z,3.70
2018-11-27T13:05:26.501Z,3.70
2018-11-27T13:06:30.590Z,3.60
2018-11-27T13:07:34.778Z,3.60
2018-11-27T13:08:39.060Z,3.60
2018-11-27T13:09:43.343Z,3.60
2018-11-27T13:10:47.615Z,3.50
2018-11-27T13:11:51.841Z,3.50
2018-11-27T13:12:56.192Z,3.30
2018-11-27T13:14:00.393Z,3.30
2018-11-27T13:15:04.817Z,3.30
2018-11-27T13:16:09.153Z,3.30
2018-11-27T13:17:13.969Z,3.20
2018-11-27T13:18:18.277Z,3.20
2018-11-27T13:19:22.579Z,3.10
2018-11-27T13:20:26.585Z,3.10
2018-11-27T13:21:30.896Z,3.20
2018-11-27T13:22:35.090Z,3.10
2018-11-27T13:23:39.427Z,3.10
2018-11-27T13:24:43.589Z,3.20
2018-11-27T13:25:51.710Z,3.20
2018-11-27T13:26:55.896Z,3.20
2018-11-27T13:28:00.877Z,3.10
2018-11-27T13:29:05.141Z,3.10
2018-11-27T13:30:13.537Z,3.20
2018-11-27T13:31:19.152Z,3.10
2018-11-27T13:32:23.145Z,3.20
2018-11-27T13:33:35.060Z,3.20
2018-11-27T13:34:40.449Z,3.10
2018-11-27T13:35:44.819Z,3.10
2018-11-27T13:36:49.023Z,3.10
2018-11-27T13:37:53.167Z,3.00
2018-11-27T13:39:07.334Z,3.00
2018-11-27T13:40:12.576Z,3.00
2018-11-27T13:41:16.746Z,3.00
2018-11-27T13:42:20.903Z,3.00
2018-11-27T13:43:27.412Z,3.00
2018-11-27T13:44:32.973Z,2.90
2018-11-27T13:45:37.845Z,2.90
2018-11-27T13:46:42.053Z,3.00
2018-11-27T13:47:46.248Z,2.90
2018-11-27T13:48:52.600Z,3.00
2018-11-27T13:49:56.813Z,2.90
2018-11-27T13:51:01.160Z,2.90
2018-11-27T13:52:05.788Z,2.90
2018-11-27T13:53:10.125Z,2.90
2018-11-27T13:54:14.278Z,2.90
2018-11-27T13:55:20.655Z,2.80
2018-11-27T13:56:24.818Z,2.80
2018-11-27T13:57:28.977Z,2.80
2018-11-27T13:58:33.208Z,2.80
2018-11-27T13:59:38.517Z,2.80
2018-11-27T14:00:42.925Z,2.70
2018-11-27T14:01:47.306Z,2.70
2018-11-27T14:02:56.241Z,2.70
2018-11-27T14:04:00.436Z,2.60
2018-11-27T14:05:05.006Z,2.60
2018-11-27T14:06:12.243Z,2.60
2018-11-27T14:07:16.389Z,2.60
2018-11-27T14:08:28.292Z,2.60
2018-11-27T14:09:32.609Z,2.50
2018-11-27T14:10:38.900Z,2.50
2018-11-27T14:11:43.136Z,2.50
2018-11-27T14:12:47.412Z,2.50
2018-11-27T14:13:51.575Z,2.50
2018-11-27T14:14:55.744Z,2.50
2018-11-27T14:16:00.018Z,2.50
2018-11-27T14:17:04.454Z,2.50
2018-11-27T14:18:09.981Z,2.40
2018-11-27T14:19:14.445Z,2.50
2018-11-27T14:20:20.157Z,2.50
2018-11-27T14:21:24.382Z,2.50